Time;durP1;ratioP1;P1;durP2;ratioP2;P2;SDS_P1;SDS_P2;PMS_P1;PMS_P2;Temp;Humidity;BMP_temperature;BMP_pressure;BME280_temperature;BME280_humidity;BME280_pressure;Samples;Min_cycle;Max_cycle;Signal;HPM_P1;HPM_P2
2022/02/08 00:06:23;;;;;;;;;;;;;;;1.58;78.71;98911.41;219556;1276;22722;-73
2022/02/08 00:12:29;;;;;;;;;;;;;;;1.60;78.59;98917.05;219726;1274;22525;-73
2022/02/08 00:18:19;;;;;;;;;;;;;;;;;;;;;
2022/02/08 00:23:44;;;;;;;;;;;;;;;1.63;78.51;98930.98;219778;1274;22549;-74
2022/02/08 00:29:49;;;;;;;;;;;;;;;1.68;78.37;98934.36;219781;1274;24246;-74
2022/02/08 00:36:09;;;;;;;;;;;;;;;1.70;78.36;98949.16;219828;1273;23353;-73
2022/02/08 00:48:37;;;;;;;;;;;;;;;1.73;78.14;98977.45;219620;1274;25324;-73
2022/02/08 00:54:00;;;;;;;;;;;;;;;1.75;77.99;98979.85;219707;1274;25253;-73
2022/02/08 00:59:53;;;;;;;;;;;;;;;1.77;77.93;98987.59;219686;1274;22599;-72
2022/02/08 01:06:27;;;;;;;;;;;;;;;;;;;;;
2022/02/08 01:12:43;;;;;;;;;;;;;;;;;;;;;
2022/02/08 01:18:46;;;;;;;;;;;;;;;1.85;77.33;99005.39;219653;1274;22531;-74
2022/02/08 01:25:09;;;;;;;;;;;;;;;;;;;;;
2022/02/08 01:51:00;;;;;;;;;;;;;;;;;;;;;
2022/02/08 01:57:16;;;;;;;;;;;;;;;;;;;;;
2022/02/08 02:23:24;;;;;;;;;;;;;;;1.96;76.43;99062.77;219571;1274;24300;-74
2022/02/08 02:29:24;;;;;;;;;;;;;;;1.96;76.23;99069.02;219628;1274;25809;-73
2022/02/08 02:35:38;;;;;;;;;;;;;;;1.96;76.26;99087.35;219753;1273;22522;-74
2022/02/08 02:42:00;;;;;;;;;;;;;;;1.95;76.30;99081.30;219687;1274;22540;-73
2022/02/08 02:47:45;;;;;;;;;;;;;;;1.96;76.02;99091.21;219671;1274;22536;-73
2022/02/08 03:19:58;;;;;;;;;;;;;;;;;;;;;
2022/02/08 03:26:19;;;;;;;;;;;;;;;;;;;;;
2022/02/08 04:06:13;;;;;;;;;;;;;;;2.10;75.02;99247.81;219491;1274;22948;-73
2022/02/08 04:43:26;;;;;;;;;;;;;;;2.01;74.96;99288.20;219722;1274;22530;-73
2022/02/08 04:49:25;;;;;;;;;;;;;;;;;;;;;
2022/02/08 04:55:41;;;;;;;;;;;;;;;;;;;;;
2022/02/08 05:51:32;;;;;;;;;;;;;;;1.93;75.31;99335.52;220021;1273;22646;-73
2022/02/08 06:03:50;;;;;;;;;;;;;;;;;;;;;
2022/02/08 06:10:21;;;;;;;;;;;;;;;1.90;75.56;99355.84;220020;1273;22639;-73
2022/02/08 06:16:29;;;;;;;;;;;;;;;1.91;75.39;99357.57;220206;1273;22626;-73
2022/02/08 06:29:32;;;;;;;;;;;;;;;;;;;;;
2022/02/08 06:35:39;;;;;;;;;;;;;;;1.93;75.65;99387.48;219788;1273;22582;-73
2022/02/08 06:41:49;;;;;;;;;;;;;;;;;;;;;
2022/02/08 06:54:53;;;;;;;;;;;;;;;;;;;;;
2022/02/08 07:07:16;;;;;;;;;;;;;;;2.17;74.68;99404.71;220638;1273;23787;-71
2022/02/08 07:19:35;;;;;;;;;;;;;;;2.40;73.68;99407.98;220363;1273;25397;-72
2022/02/08 07:38:41;;;;;;;;;;;;;;;;;;;;;
2022/02/08 08:04:48;;;;;;;;;;;;;;;;;;;;;
2022/02/08 08:30:13;;;;;;;;;;;;;;;2.52;76.55;99416.77;220534;1273;22521;-71
2022/02/08 08:36:22;;;;;;;;;;;;;;;2.62;76.93;99419.77;220428;1274;22557;-72
2022/02/08 08:43:04;;;;;;;;;;;;;;;2.74;76.63;99405.50;220688;1274;22621;-72
2022/02/08 08:56:00;;;;;;;;;;;;;;;2.90;76.53;99400.11;220561;1273;22558;-71
2022/02/08 09:08:29;;;;;;;;;;;;;;;;;;;;;
2022/02/08 09:21:19;;;;;;;;;;;;;;;2.97;76.62;99386.88;220661;1274;23435;-72
2022/02/08 09:32:42;;;;;;;;;;;;;;;;;;;;;
2022/02/08 09:45:03;;;;;;;;;;;;;;;;;;;;;
2022/02/08 09:51:22;;;;;;;;;;;;;;;;;;;;;
2022/02/08 09:56:34;;;;;;;;;;;;;;;4.36;73.38;99370.61;220582;1274;24404;-72
2022/02/08 10:02:27;;;;;;;;;;;;;;;4.45;73.20;99356.73;220613;1273;22555;-70
2022/02/08 10:07:56;;;;;;;;;;;;;;;;;;;;;
2022/02/08 10:27:26;;;;;;;;;;;;;;;;;;;;;
2022/02/08 10:39:11;;;;;;;;;;;;;;;5.15;65.38;99305.34;220394;1273;22843;-71
2022/02/08 10:44:57;;;;;;;;;;;;;;;5.27;67.00;99300.77;220448;1273;24461;-72
2022/02/08 10:50:21;;;;;;;;;;;;;;;;;;;;;
2022/02/08 10:56:03;;;;;;;;;;;;;;;5.43;63.92;99281.36;220294;1273;22636;-71
2022/02/08 11:01:33;;;;;;;;;;;;;;;5.53;65.40;99273.86;220447;1273;22668;-71
2022/02/08 11:08:03;;;;;;;;;;;;;;;5.64;63.56;99257.85;213006;1273;10360610;-71
2022/02/08 11:15:07;;;;;;;;;;;;;;;5.69;63.51;99254.75;220365;1273;24072;-71
2022/02/08 11:19:48;;;;;;;;;;;;;;;5.67;63.27;99250.41;220242;1273;22579;-70
2022/02/08 11:25:48;;;;;;;;;;;;;;;;;;;;;
2022/02/08 11:31:54;;;;;;;;;;;;;;;;;;;;;
2022/02/08 11:43:50;;;;;;;;;;;;;;;5.74;63.55;99247.31;220415;1273;22625;-70
2022/02/08 12:00:52;;;;;;;;;;;;;;;5.97;61.84;99225.78;219547;1273;22695;-70
2022/02/08 14:02:32;;;;;;;;;;;;;;;4.48;67.58;99125.09;219985;1273;23453;-71
2022/02/08 14:33:06;;;;;;;;;;;;;;;4.35;70.61;99140.89;219168;1273;22525;-69
2022/02/08 15:08:48;;;;;;;;;;;;;;;;;;;;;
2022/02/08 15:14:30;;;;;;;;;;;;;;;;;;;;;
2022/02/08 15:19:58;;;;;;;;;;;;;;;4.17;73.15;99132.91;219987;1273;25373;-70
2022/02/08 15:25:26;;;;;;;;;;;;;;;4.14;73.43;99112.76;220118;1273;22605;-70
2022/02/08 15:31:34;;;;;;;;;;;;;;;4.07;73.98;99103.20;219170;1273;25547;-69
2022/02/08 15:37:15;;;;;;;;;;;;;;;4.04;74.47;99115.81;219129;1273;22532;-70
2022/02/08 15:42:40;;;;;;;;;;;;;;;3.96;75.06;99109.09;220057;1273;22528;-70
2022/02/08 15:48:34;;;;;;;;;;;;;;;3.90;75.02;99120.70;219883;1273;24471;-71
2022/02/08 16:06:23;;;;;;;;;;;;;;;3.75;76.84;99100.59;219911;1273;24795;-70
2022/02/08 16:11:48;;;;;;;;;;;;;;;3.68;77.54;99108.07;220255;1273;22537;-70
2022/02/08 16:46:10;;;;;;;;;;;;;;;3.28;81.05;99104.71;220077;1273;25443;-69
2022/02/08 16:57:31;;;;;;;;;;;;;;;3.21;82.30;99120.23;220213;1273;22542;-70
2022/02/08 17:02:32;;;;;;;;;;;;;;;3.23;82.67;99120.33;220181;1273;22529;-70
2022/02/08 17:07:46;;;;;;;;;;;;;;;3.20;83.09;99119.85;219185;1273;25246;-70
2022/02/08 17:45:46;;;;;;;;;;;;;;;2.91;87.23;99115.50;219258;1273;22536;-71
2022/02/08 17:51:00;;;;;;;;;;;;;;;2.92;88.75;99104.34;219198;1273;25421;-70
2022/02/08 17:56:14;;;;;;;;;;;;;;;2.91;88.95;99116.03;219248;1273;22535;-70
2022/02/08 18:01:20;;;;;;;;;;;;;;;2.93;89.20;99119.02;219074;1273;26443;-71
2022/02/08 18:06:22;;;;;;;;;;;;;;;2.94;90.47;99118.14;219214;1273;25251;-69
2022/02/08 18:11:29;;;;;;;;;;;;;;;2.96;90.65;99117.51;220252;1273;25356;-70
2022/02/08 18:16:36;;;;;;;;;;;;;;;2.97;89.86;99113.58;220089;1273;22597;-70
2022/02/08 18:21:58;;;;;;;;;;;;;;;3.02;89.57;99117.31;219967;1271;26016;-70
2022/02/08 19:07:01;;;;;;;;;;;;;;;3.48;88.49;99138.91;219328;1273;24237;-69
2022/02/08 19:22:00;;;;;;;;;;;;;;;3.71;89.02;99140.67;219099;1273;24133;-70
2022/02/08 19:27:26;;;;;;;;;;;;;;;3.82;88.77;99146.72;219026;1273;24278;-70
2022/02/08 19:32:42;;;;;;;;;;;;;;;3.86;88.42;99151.30;219117;1273;22583;-70
2022/02/08 19:37:48;;;;;;;;;;;;;;;3.88;88.50;99154.27;219812;1273;23023;-70
2022/02/08 19:43:14;;;;;;;;;;;;;;;3.92;88.69;99162.46;219030;1273;24348;-70
2022/02/08 19:49:00;;;;;;;;;;;;;;;3.95;88.74;99158.54;218954;1273;24334;-70
2022/02/08 19:54:12;;;;;;;;;;;;;;;4.00;88.69;99161.05;219213;1273;24132;-70
2022/02/08 19:59:24;;;;;;;;;;;;;;;4.05;88.81;99166.58;219027;1273;25323;-70
2022/02/08 20:04:27;;;;;;;;;;;;;;;4.12;88.83;99166.13;220149;1273;24427;-69
2022/02/08 20:09:32;;;;;;;;;;;;;;;4.21;88.87;99171.92;219062;1273;24265;-69
2022/02/08 20:14:57;;;;;;;;;;;;;;;4.31;88.86;99184.89;219257;1273;22610;-71
2022/02/08 20:20:29;;;;;;;;;;;;;;;4.37;88.73;99187.60;219446;1273;25235;-70
2022/02/08 20:25:58;;;;;;;;;;;;;;;4.42;88.49;99194.89;220001;1273;22559;-69
2022/02/08 20:31:24;;;;;;;;;;;;;;;4.46;88.52;99199.36;219055;1273;22550;-70
2022/02/08 20:37:09;;;;;;;;;;;;;;;4.49;88.47;99195.92;219808;1273;22551;-72
2022/02/08 20:43:24;;;;;;;;;;;;;;;4.53;88.43;99204.00;219802;1273;24891;-69
2022/02/08 20:49:06;;;;;;;;;;;;;;;4.56;88.19;99196.25;219929;1273;25426;-70
2022/02/08 20:54:29;;;;;;;;;;;;;;;4.67;88.26;99204.00;220037;1273;25359;-70
2022/02/08 21:00:01;;;;;;;;;;;;;;;4.75;88.24;99207.52;219767;1273;22588;-70
2022/02/08 21:10:49;;;;;;;;;;;;;;;4.90;87.88;99221.80;219125;1273;25402;-70
2022/02/08 21:16:04;;;;;;;;;;;;;;;4.94;87.72;99224.57;219011;1273;26426;-70
2022/02/08 21:21:36;;;;;;;;;;;;;;;4.96;87.82;99227.36;219123;1273;24792;-70
2022/02/08 21:26:52;;;;;;;;;;;;;;;5.01;88.00;99228.36;219081;1273;25590;-70
2022/02/08 21:53:36;;;;;;;;;;;;;;;5.12;88.34;99258.66;219855;1273;24256;-70
2022/02/08 21:58:38;;;;;;;;;;;;;;;5.12;88.37;99264.49;219372;1273;24819;-70
2022/02/08 22:03:53;;;;;;;;;;;;;;;5.13;88.43;99264.61;219046;1273;24210;-69
2022/02/08 22:08:58;;;;;;;;;;;;;;;5.13;88.68;99269.46;220029;1273;23088;-68
2022/02/08 22:21:13;;;;;;;;;;;;;;;5.13;89.07;99280.98;219616;1273;22534;-70
2022/02/08 22:37:59;;;;;;;;;;;;;;;5.12;89.30;99303.32;219111;1273;22609;-70
2022/02/08 22:43:06;;;;;;;;;;;;;;;5.13;89.52;99308.28;219210;1273;22535;-70
2022/02/08 22:48:21;;;;;;;;;;;;;;;;;;;;;
2022/02/08 22:53:47;;;;;;;;;;;;;;;5.19;89.53;99315.27;219214;1273;22556;-71
2022/02/08 22:59:12;;;;;;;;;;;;;;;;;;;;;
2022/02/08 23:04:31;;;;;;;;;;;;;;;5.26;89.46;99324.91;219117;1271;24826;-70
2022/02/08 23:09:57;;;;;;;;;;;;;;;5.29;89.75;99329.23;219014;1273;354706;-70
2022/02/08 23:38:04;;;;;;;;;;;;;;;5.43;89.53;99338.59;219113;1273;24254;-70
2022/02/08 23:44:00;;;;;;;;;;;;;;;5.47;89.36;99334.20;219643;1273;22698;-70
2022/02/08 23:50:00;;;;;;;;;;;;;;;5.52;89.27;99337.77;219310;1273;22523;-69
2022/02/08 23:55:31;;;;;;;;;;;;;;;5.54;89.19;99333.98;219319;1273;22711;-69
